Centennial, WY

5:14 AM MST on December 29, 2014 (GMT -0700)
Aspen Country | Change Station
CLOSE
Current Station
Personal Weather Station
Location: Centennial, WY
Elevation: 8050 ft
Nearby Weather Stations

Elev 8050 ft 41.29 °N, 106.15 °W | Updated 3 minutes ago

Snow
Snow
-1.3 °F
Feels Like -1 °F
N
1.0
Wind Variable Wind from NNE
Gusts 1.0 mph

Today
High -- | Low -- °F
--% Chance of Precip.
Yesterday
High -- | Low -- °F
Precip. -- in
7:29 AM 4:43 PM
First Quarter, 58% visible
Pressure 30.15 in
Visibility 5.0 miles
Clouds Overcast 1700 ft
Windchill -1 °F
Dew Point -6 °F
Humidity 81%
Rainfall 0.00 in
Snow Depth Not available.
UV 0 out of 12
Pollen .10 out of 12
Air Quality Not available.
Flu Activity Not available.
METAR KLAR 291153Z AUTO 01004KT 5SM BR OVC017 M15/M16 A2994 RMK AO2 SNE48 SLP210 P0000 60000 T11501161 11111 21150 51007

More Conditions Fewer Conditions

Pressure 30.15 in
Visibility 5.0 miles
Clouds Overcast 1700 ft
Windchill -1 °F
Dew Point -6 °F
Humidity 81%
Rainfall 0.00 in
Snow Depth Not available.
UV 0 out of 12
Pollen .10 out of 12
Air Quality Not available.
Flu Activity Not available.
METAR KLAR 291153Z AUTO 01004KT 5SM BR OVC017 M15/M16 A2994 RMK AO2 SNE48 SLP210 P0000 60000 T11501161 11111 21150 51007

More Conditions Fewer Conditions

10-Day Weather Forecast

Almanac

Astronomy

Dec. 29, 2014 Rise Set
Actual Time
Civil Twilight
Nautical Twilight
Astronomical Twilight
Moon
Length of Visible Light
Length of Day
Tomorrow will be .
, % of the Moon is Illuminated

Today's Extremes

State Highs State Lows

Community

WunderPhotos

Upload Photos

1,781,571 photos uploaded!

WunderBlogs® & News

Nearby

Air Quality

  Air Quality AQ Index Pollutant
Not available.

Snow Depth

Station Depth Elevation

Earthquake Activity

City Distance Mag. Time & Date
Minimum magnitude displayed is 2.5.

Coastal Water Temperatures

Place Temperature

Nearby Weather Stations